sensor_id;sensor_type;location;lat;lon;timestamp;temperature;humidity
52127;DHT22;38120;53.176;6.614;2023-09-12T00:02:21;19.30;99.90
52127;DHT22;38120;53.176;6.614;2023-09-12T00:04:46;19.40;99.90
52127;DHT22;38120;53.176;6.614;2023-09-12T00:07:16;19.40;99.90
52127;DHT22;38120;53.176;6.614;2023-09-12T00:09:41;19.30;99.90
52127;DHT22;38120;53.176;6.614;2023-09-12T00:12:07;19.30;99.90
52127;DHT22;38120;53.176;6.614;2023-09-12T00:14:33;19.30;99.90
52127;DHT22;38120;53.176;6.614;2023-09-12T00:16:59;19.30;99.90
52127;DHT22;38120;53.176;6.614;2023-09-12T00:19:25;19.30;99.90
52127;DHT22;38120;53.176;6.614;2023-09-12T00:21:51;19.30;99.90
52127;DHT22;38120;53.176;6.614;2023-09-12T00:24:18;19.30;99.90
52127;DHT22;38120;53.176;6.614;2023-09-12T00:26:44;19.30;99.90
52127;DHT22;38120;53.176;6.614;2023-09-12T00:29:09;19.30;99.90
52127;DHT22;38120;53.176;6.614;2023-09-12T00:31:35;19.30;99.90
52127;DHT22;38120;53.176;6.614;2023-09-12T00:34:01;19.30;99.90
52127;DHT22;38120;53.176;6.614;2023-09-12T00:36:26;19.30;99.90
52127;DHT22;38120;53.176;6.614;2023-09-12T00:38:52;19.30;99.90
52127;DHT22;38120;53.176;6.614;2023-09-12T00:41:18;19.20;99.90
52127;DHT22;38120;53.176;6.614;2023-09-12T00:43:43;19.30;99.90
52127;DHT22;38120;53.176;6.614;2023-09-12T00:46:09;19.20;99.90
52127;DHT22;38120;53.176;6.614;2023-09-12T00:48:36;19.20;99.90
52127;DHT22;38120;53.176;6.614;2023-09-12T00:51:03;19.20;99.90
52127;DHT22;38120;53.176;6.614;2023-09-12T00:53:29;19.20;99.90
52127;DHT22;38120;53.176;6.614;2023-09-12T00:55:57;19.20;99.90
52127;DHT22;38120;53.176;6.614;2023-09-12T00:58:25;19.20;99.90
52127;DHT22;38120;53.176;6.614;2023-09-12T01:00:52;19.10;99.90
52127;DHT22;38120;53.176;6.614;2023-09-12T01:03:18;19.10;99.90
52127;DHT22;38120;53.176;6.614;2023-09-12T01:05:44;19.10;99.90
52127;DHT22;38120;53.176;6.614;2023-09-12T01:08:11;19.10;99.90
52127;DHT22;38120;53.176;6.614;2023-09-12T01:10:37;19.10;99.90
52127;DHT22;38120;53.176;6.614;2023-09-12T01:13:03;19.10;99.90
52127;DHT22;38120;53.176;6.614;2023-09-12T01:15:29;19.10;99.90
52127;DHT22;38120;53.176;6.614;2023-09-12T01:17:55;19.00;99.90
52127;DHT22;38120;53.176;6.614;2023-09-12T01:20:25;19.10;99.90
52127;DHT22;38120;53.176;6.614;2023-09-12T01:26:01;19.10;99.90
52127;DHT22;38120;53.176;6.614;2023-09-12T01:28:30;19.00;99.90
52127;DHT22;38120;53.176;6.614;2023-09-12T01:31:01;19.10;99.90
52127;DHT22;38120;53.176;6.614;2023-09-12T01:33:28;19.00;99.90
52127;DHT22;38120;53.176;6.614;2023-09-12T01:35:54;19.00;99.90
52127;DHT22;38120;53.176;6.614;2023-09-12T01:38:21;19.00;99.90
52127;DHT22;38120;53.176;6.614;2023-09-12T01:40:49;19.00;99.90
52127;DHT22;38120;53.176;6.614;2023-09-12T01:43:18;19.00;99.90
52127;DHT22;38120;53.176;6.614;2023-09-12T01:45:55;19.00;99.90
52127;DHT22;38120;53.176;6.614;2023-09-12T01:48:23;18.90;99.90
52127;DHT22;38120;53.176;6.614;2023-09-12T01:50:49;18.90;99.90
52127;DHT22;38120;53.176;6.614;2023-09-12T01:53:15;18.90;99.90
52127;DHT22;38120;53.176;6.614;2023-09-12T01:55:42;18.90;99.90
52127;DHT22;38120;53.176;6.614;2023-09-12T01:58:08;18.80;99.90
52127;DHT22;38120;53.176;6.614;2023-09-12T02:00:35;18.80;99.90
52127;DHT22;38120;53.176;6.614;2023-09-12T02:03:03;18.80;99.90
52127;DHT22;38120;53.176;6.614;2023-09-12T02:05:28;18.80;99.90
52127;DHT22;38120;53.176;6.614;2023-09-12T02:07:54;18.80;99.90
52127;DHT22;38120;53.176;6.614;2023-09-12T02:10:20;18.80;99.90
52127;DHT22;38120;53.176;6.614;2023-09-12T02:12:46;18.80;99.90
52127;DHT22;38120;53.176;6.614;2023-09-12T02:15:12;18.70;99.90
52127;DHT22;38120;53.176;6.614;2023-09-12T02:17:38;18.70;99.90
52127;DHT22;38120;53.176;6.614;2023-09-12T02:20:06;18.70;99.90
52127;DHT22;38120;53.176;6.614;2023-09-12T02:22:32;18.60;99.90
52127;DHT22;38120;53.176;6.614;2023-09-12T02:24:58;18.60;99.90
52127;DHT22;38120;53.176;6.614;2023-09-12T02:27:24;18.50;99.90
52127;DHT22;38120;53.176;6.614;2023-09-12T02:29:49;18.50;99.90
52127;DHT22;38120;53.176;6.614;2023-09-12T02:32:15;18.50;99.90
52127;DHT22;38120;53.176;6.614;2023-09-12T02:34:40;18.50;99.90
52127;DHT22;38120;53.176;6.614;2023-09-12T02:37:06;18.50;99.90
52127;DHT22;38120;53.176;6.614;2023-09-12T02:39:32;18.50;99.90
52127;DHT22;38120;53.176;6.614;2023-09-12T02:41:57;18.50;99.90
52127;DHT22;38120;53.176;6.614;2023-09-12T02:44:23;18.40;99.90
52127;DHT22;38120;53.176;6.614;2023-09-12T02:46:49;18.40;99.90
52127;DHT22;38120;53.176;6.614;2023-09-12T02:49:15;18.40;99.90
52127;DHT22;38120;53.176;6.614;2023-09-12T02:51:42;18.40;99.90
52127;DHT22;38120;53.176;6.614;2023-09-12T02:54:07;18.40;99.90
52127;DHT22;38120;53.176;6.614;2023-09-12T02:56:33;18.40;99.90
52127;DHT22;38120;53.176;6.614;2023-09-12T02:58:59;18.40;99.90
52127;DHT22;38120;53.176;6.614;2023-09-12T03:01:25;18.40;99.90
52127;DHT22;38120;53.176;6.614;2023-09-12T03:03:53;18.40;99.90
52127;DHT22;38120;53.176;6.614;2023-09-12T03:06:19;18.40;99.90
52127;DHT22;38120;53.176;6.614;2023-09-12T03:08:49;18.40;99.90
52127;DHT22;38120;53.176;6.614;2023-09-12T03:11:15;18.50;99.90
52127;DHT22;38120;53.176;6.614;2023-09-12T03:13:41;18.50;99.90
52127;DHT22;38120;53.176;6.614;2023-09-12T03:16:11;18.50;99.90
52127;DHT22;38120;53.176;6.614;2023-09-12T03:18:37;18.50;99.90
52127;DHT22;38120;53.176;6.614;2023-09-12T03:21:02;18.50;99.90
52127;DHT22;38120;53.176;6.614;2023-09-12T03:23:28;18.50;99.90
52127;DHT22;38120;53.176;6.614;2023-09-12T03:25:54;18.50;99.90
52127;DHT22;38120;53.176;6.614;2023-09-12T03:28:20;18.50;99.90
52127;DHT22;38120;53.176;6.614;2023-09-12T03:30:45;18.50;99.90
52127;DHT22;38120;53.176;6.614;2023-09-12T03:33:11;18.50;99.90
52127;DHT22;38120;53.176;6.614;2023-09-12T03:35:37;18.50;99.90
52127;DHT22;38120;53.176;6.614;2023-09-12T03:38:02;18.50;99.90
52127;DHT22;38120;53.176;6.614;2023-09-12T03:40:31;18.50;99.90
52127;DHT22;38120;53.176;6.614;2023-09-12T03:42:57;18.40;99.90
52127;DHT22;38120;53.176;6.614;2023-09-12T03:45:24;18.50;99.90
52127;DHT22;38120;53.176;6.614;2023-09-12T03:47:50;18.50;99.90
52127;DHT22;38120;53.176;6.614;2023-09-12T03:50:16;18.40;99.90
52127;DHT22;38120;53.176;6.614;2023-09-12T03:52:42;18.40;99.90
52127;DHT22;38120;53.176;6.614;2023-09-12T03:55:08;18.40;99.90
52127;DHT22;38120;53.176;6.614;2023-09-12T03:57:34;18.40;99.90
52127;DHT22;38120;53.176;6.614;2023-09-12T03:59:59;18.40;99.90
52127;DHT22;38120;53.176;6.614;2023-09-12T04:02:25;18.40;99.90
52127;DHT22;38120;53.176;6.614;2023-09-12T04:04:51;18.40;99.90
52127;DHT22;38120;53.176;6.614;2023-09-12T04:07:17;18.40;99.90
52127;DHT22;38120;53.176;6.614;2023-09-12T04:09:43;18.40;99.90
52127;DHT22;38120;53.176;6.614;2023-09-12T04:12:09;18.40;99.90
52127;DHT22;38120;53.176;6.614;2023-09-12T04:14:35;18.40;99.90
52127;DHT22;38120;53.176;6.614;2023-09-12T04:17:01;18.40;99.90
52127;DHT22;38120;53.176;6.614;2023-09-12T04:19:28;18.30;99.90
52127;DHT22;38120;53.176;6.614;2023-09-12T04:21:53;18.30;99.90
52127;DHT22;38120;53.176;6.614;2023-09-12T04:24:19;18.30;99.90
52127;DHT22;38120;53.176;6.614;2023-09-12T04:26:46;18.30;99.90
52127;DHT22;38120;53.176;6.614;2023-09-12T04:29:12;18.20;99.90
52127;DHT22;38120;53.176;6.614;2023-09-12T04:31:37;18.20;99.90
52127;DHT22;38120;53.176;6.614;2023-09-12T04:34:03;18.20;99.90
52127;DHT22;38120;53.176;6.614;2023-09-12T04:36:29;18.10;99.90
52127;DHT22;38120;53.176;6.614;2023-09-12T04:38:55;18.10;99.90
52127;DHT22;38120;53.176;6.614;2023-09-12T04:41:20;18.10;99.90
52127;DHT22;38120;53.176;6.614;2023-09-12T04:43:46;18.00;99.90
52127;DHT22;38120;53.176;6.614;2023-09-12T04:46:12;18.00;99.90
52127;DHT22;38120;53.176;6.614;2023-09-12T04:48:38;18.00;99.90
52127;DHT22;38120;53.176;6.614;2023-09-12T04:51:04;18.00;99.90
52127;DHT22;38120;53.176;6.614;2023-09-12T04:53:30;17.90;99.90
52127;DHT22;38120;53.176;6.614;2023-09-12T04:56:03;17.90;99.90
52127;DHT22;38120;53.176;6.614;2023-09-12T04:58:29;17.90;99.90
52127;DHT22;38120;53.176;6.614;2023-09-12T05:00:55;17.90;99.90
52127;DHT22;38120;53.176;6.614;2023-09-12T05:03:22;17.80;99.90
52127;DHT22;38120;53.176;6.614;2023-09-12T05:05:49;17.80;99.90
52127;DHT22;38120;53.176;6.614;2023-09-12T05:08:16;17.80;99.90
52127;DHT22;38120;53.176;6.614;2023-09-12T05:10:44;17.80;99.90
52127;DHT22;38120;53.176;6.614;2023-09-12T05:13:09;17.80;99.90
52127;DHT22;38120;53.176;6.614;2023-09-12T05:15:35;17.80;99.90
52127;DHT22;38120;53.176;6.614;2023-09-12T05:18:02;17.80;99.90
52127;DHT22;38120;53.176;6.614;2023-09-12T05:20:28;17.70;99.90
52127;DHT22;38120;53.176;6.614;2023-09-12T05:22:53;17.70;99.90
52127;DHT22;38120;53.176;6.614;2023-09-12T05:25:19;17.70;99.90
52127;DHT22;38120;53.176;6.614;2023-09-12T05:27:45;17.70;99.90
52127;DHT22;38120;53.176;6.614;2023-09-12T05:30:11;17.80;99.90
52127;DHT22;38120;53.176;6.614;2023-09-12T05:32:37;17.80;99.90
52127;DHT22;38120;53.176;6.614;2023-09-12T05:35:03;17.80;99.90
52127;DHT22;38120;53.176;6.614;2023-09-12T05:37:29;17.80;99.90
52127;DHT22;38120;53.176;6.614;2023-09-12T05:39:54;17.80;99.90
52127;DHT22;38120;53.176;6.614;2023-09-12T05:42:20;17.70;99.90
52127;DHT22;38120;53.176;6.614;2023-09-12T05:44:48;17.70;99.90
52127;DHT22;38120;53.176;6.614;2023-09-12T05:47:18;17.80;99.90
52127;DHT22;38120;53.176;6.614;2023-09-12T05:49:43;17.70;99.90
52127;DHT22;38120;53.176;6.614;2023-09-12T05:52:09;17.80;99.90
52127;DHT22;38120;53.176;6.614;2023-09-12T05:54:35;17.80;99.90
52127;DHT22;38120;53.176;6.614;2023-09-12T05:57:00;17.80;99.90
52127;DHT22;38120;53.176;6.614;2023-09-12T05:59:26;17.80;99.90
52127;DHT22;38120;53.176;6.614;2023-09-12T06:01:52;17.80;99.90
52127;DHT22;38120;53.176;6.614;2023-09-12T06:04:17;17.80;99.90
52127;DHT22;38120;53.176;6.614;2023-09-12T06:06:43;17.90;99.90
52127;DHT22;38120;53.176;6.614;2023-09-12T06:09:09;17.90;99.90
52127;DHT22;38120;53.176;6.614;2023-09-12T06:11:35;17.90;99.90
52127;DHT22;38120;53.176;6.614;2023-09-12T06:14:00;18.00;99.90
52127;DHT22;38120;53.176;6.614;2023-09-12T06:16:26;18.00;99.90
52127;DHT22;38120;53.176;6.614;2023-09-12T06:18:52;18.00;99.90
52127;DHT22;38120;53.176;6.614;2023-09-12T06:21:19;18.00;99.90
52127;DHT22;38120;53.176;6.614;2023-09-12T06:23:47;18.10;99.90
52127;DHT22;38120;53.176;6.614;2023-09-12T06:26:13;18.10;99.90
52127;DHT22;38120;53.176;6.614;2023-09-12T06:28:40;18.10;99.90
52127;DHT22;38120;53.176;6.614;2023-09-12T06:31:09;18.10;99.90
52127;DHT22;38120;53.176;6.614;2023-09-12T06:33:39;18.00;99.90
52127;DHT22;38120;53.176;6.614;2023-09-12T06:36:04;18.10;99.90
52127;DHT22;38120;53.176;6.614;2023-09-12T06:38:30;18.10;99.90
52127;DHT22;38120;53.176;6.614;2023-09-12T06:40:56;18.10;99.90
52127;DHT22;38120;53.176;6.614;2023-09-12T06:43:24;18.10;99.90
52127;DHT22;38120;53.176;6.614;2023-09-12T06:45:50;18.10;99.90
52127;DHT22;38120;53.176;6.614;2023-09-12T06:48:16;18.10;99.90
52127;DHT22;38120;53.176;6.614;2023-09-12T06:50:42;18.10;99.90
52127;DHT22;38120;53.176;6.614;2023-09-12T06:53:07;18.10;99.90
52127;DHT22;38120;53.176;6.614;2023-09-12T06:55:33;18.10;99.90
52127;DHT22;38120;53.176;6.614;2023-09-12T06:57:59;18.20;99.90
52127;DHT22;38120;53.176;6.614;2023-09-12T07:00:25;18.10;99.90
52127;DHT22;38120;53.176;6.614;2023-09-12T07:02:52;18.10;99.90
52127;DHT22;38120;53.176;6.614;2023-09-12T07:05:18;18.20;99.90
52127;DHT22;38120;53.176;6.614;2023-09-12T07:07:43;18.30;99.90
52127;DHT22;38120;53.176;6.614;2023-09-12T07:10:09;18.30;99.90
52127;DHT22;38120;53.176;6.614;2023-09-12T07:12:35;18.40;99.90
52127;DHT22;38120;53.176;6.614;2023-09-12T07:15:01;18.40;99.90
52127;DHT22;38120;53.176;6.614;2023-09-12T07:17:28;18.40;99.90
52127;DHT22;38120;53.176;6.614;2023-09-12T07:19:54;18.40;99.90
52127;DHT22;38120;53.176;6.614;2023-09-12T07:22:20;18.40;99.90
52127;DHT22;38120;53.176;6.614;2023-09-12T07:24:46;18.50;99.90
52127;DHT22;38120;53.176;6.614;2023-09-12T07:27:11;18.60;99.90
52127;DHT22;38120;53.176;6.614;2023-09-12T07:29:38;18.70;99.90
52127;DHT22;38120;53.176;6.614;2023-09-12T07:32:03;18.70;99.90
52127;DHT22;38120;53.176;6.614;2023-09-12T07:34:29;18.70;99.90
52127;DHT22;38120;53.176;6.614;2023-09-12T07:36:55;18.80;99.90
52127;DHT22;38120;53.176;6.614;2023-09-12T07:39:21;18.90;99.90
52127;DHT22;38120;53.176;6.614;2023-09-12T07:41:47;18.90;99.90
52127;DHT22;38120;53.176;6.614;2023-09-12T07:44:12;18.90;99.90
52127;DHT22;38120;53.176;6.614;2023-09-12T07:46:41;19.00;99.90
52127;DHT22;38120;53.176;6.614;2023-09-12T07:49:06;19.00;99.90
52127;DHT22;38120;53.176;6.614;2023-09-12T07:51:35;19.10;99.90
52127;DHT22;38120;53.176;6.614;2023-09-12T07:54:01;19.20;99.90
52127;DHT22;38120;53.176;6.614;2023-09-12T07:56:27;19.20;99.90
52127;DHT22;38120;53.176;6.614;2023-09-12T07:58:53;19.20;99.90
52127;DHT22;38120;53.176;6.614;2023-09-12T08:01:18;19.20;99.90
52127;DHT22;38120;53.176;6.614;2023-09-12T08:03:44;19.10;99.90
52127;DHT22;38120;53.176;6.614;2023-09-12T08:06:10;19.10;99.90
52127;DHT22;38120;53.176;6.614;2023-09-12T08:08:36;19.00;99.90
52127;DHT22;38120;53.176;6.614;2023-09-12T08:11:01;19.00;99.90
52127;DHT22;38120;53.176;6.614;2023-09-12T08:13:28;19.00;99.90
52127;DHT22;38120;53.176;6.614;2023-09-12T08:15:55;19.00;99.90
52127;DHT22;38120;53.176;6.614;2023-09-12T08:18:21;19.00;99.90
52127;DHT22;38120;53.176;6.614;2023-09-12T08:20:47;19.00;99.90
52127;DHT22;38120;53.176;6.614;2023-09-12T08:23:12;19.00;99.90
52127;DHT22;38120;53.176;6.614;2023-09-12T08:25:39;19.00;99.90
52127;DHT22;38120;53.176;6.614;2023-09-12T08:28:05;19.00;99.90
52127;DHT22;38120;53.176;6.614;2023-09-12T08:30:31;19.00;99.90
52127;DHT22;38120;53.176;6.614;2023-09-12T08:32:58;19.00;99.90
52127;DHT22;38120;53.176;6.614;2023-09-12T08:35:24;19.10;99.90
52127;DHT22;38120;53.176;6.614;2023-09-12T08:37:52;19.20;99.90
52127;DHT22;38120;53.176;6.614;2023-09-12T08:40:17;19.20;99.90
52127;DHT22;38120;53.176;6.614;2023-09-12T08:42:44;19.30;99.90
52127;DHT22;38120;53.176;6.614;2023-09-12T08:45:15;19.30;99.90
52127;DHT22;38120;53.176;6.614;2023-09-12T08:47:41;19.40;99.90
52127;DHT22;38120;53.176;6.614;2023-09-12T08:50:10;19.50;99.90
52127;DHT22;38120;53.176;6.614;2023-09-12T08:52:37;19.60;99.90
52127;DHT22;38120;53.176;6.614;2023-09-12T08:55:03;19.70;99.90
52127;DHT22;38120;53.176;6.614;2023-09-12T08:57:32;19.70;99.90
52127;DHT22;38120;53.176;6.614;2023-09-12T09:00:00;19.80;99.90
52127;DHT22;38120;53.176;6.614;2023-09-12T09:02:35;19.90;99.90
52127;DHT22;38120;53.176;6.614;2023-09-12T09:05:02;19.90;99.90
52127;DHT22;38120;53.176;6.614;2023-09-12T09:07:35;19.90;99.90
52127;DHT22;38120;53.176;6.614;2023-09-12T09:10:04;20.00;99.90
52127;DHT22;38120;53.176;6.614;2023-09-12T09:12:33;20.00;99.90
52127;DHT22;38120;53.176;6.614;2023-09-12T09:15:23;20.00;99.90
52127;DHT22;38120;53.176;6.614;2023-09-12T09:17:51;19.90;99.90
52127;DHT22;38120;53.176;6.614;2023-09-12T09:20:31;20.00;99.90
52127;DHT22;38120;53.176;6.614;2023-09-12T09:23:04;20.20;99.90
52127;DHT22;38120;53.176;6.614;2023-09-12T09:25:51;20.40;99.90
52127;DHT22;38120;53.176;6.614;2023-09-12T09:28:19;20.50;99.90
52127;DHT22;38120;53.176;6.614;2023-09-12T09:30:46;20.50;99.90
52127;DHT22;38120;53.176;6.614;2023-09-12T09:33:13;20.50;99.90
52127;DHT22;38120;53.176;6.614;2023-09-12T09:35:42;20.40;99.90
52127;DHT22;38120;53.176;6.614;2023-09-12T09:38:08;20.30;99.90
52127;DHT22;38120;53.176;6.614;2023-09-12T09:40:34;20.30;99.90
52127;DHT22;38120;53.176;6.614;2023-09-12T09:43:02;20.30;99.90
52127;DHT22;38120;53.176;6.614;2023-09-12T09:45:30;20.30;99.90
52127;DHT22;38120;53.176;6.614;2023-09-12T09:48:04;20.40;99.90
52127;DHT22;38120;53.176;6.614;2023-09-12T09:50:34;20.40;99.90
52127;DHT22;38120;53.176;6.614;2023-09-12T09:53:02;20.40;99.90
52127;DHT22;38120;53.176;6.614;2023-09-12T09:55:30;20.50;99.90
52127;DHT22;38120;53.176;6.614;2023-09-12T09:57:56;20.60;99.90
52127;DHT22;38120;53.176;6.614;2023-09-12T10:00:22;20.60;99.90
52127;DHT22;38120;53.176;6.614;2023-09-12T10:02:50;20.70;99.90
52127;DHT22;38120;53.176;6.614;2023-09-12T10:05:17;20.80;99.90
52127;DHT22;38120;53.176;6.614;2023-09-12T10:07:49;20.90;99.90
52127;DHT22;38120;53.176;6.614;2023-09-12T10:10:18;21.10;99.90
52127;DHT22;38120;53.176;6.614;2023-09-12T10:13:03;21.10;99.90
52127;DHT22;38120;53.176;6.614;2023-09-12T10:15:30;21.30;99.90
52127;DHT22;38120;53.176;6.614;2023-09-12T10:17:57;21.40;99.90
52127;DHT22;38120;53.176;6.614;2023-09-12T10:20:27;21.40;99.90
52127;DHT22;38120;53.176;6.614;2023-09-12T10:23:22;21.40;99.90
52127;DHT22;38120;53.176;6.614;2023-09-12T10:25:49;21.40;99.90
52127;DHT22;38120;53.176;6.614;2023-09-12T10:28:17;21.40;99.90
52127;DHT22;38120;53.176;6.614;2023-09-12T10:30:44;21.40;99.90
52127;DHT22;38120;53.176;6.614;2023-09-12T10:33:10;21.30;99.90
52127;DHT22;38120;53.176;6.614;2023-09-12T10:35:37;21.20;99.90
52127;DHT22;38120;53.176;6.614;2023-09-12T10:38:05;21.20;99.90
52127;DHT22;38120;53.176;6.614;2023-09-12T10:40:36;21.20;99.90
52127;DHT22;38120;53.176;6.614;2023-09-12T10:43:03;21.20;99.90
52127;DHT22;38120;53.176;6.614;2023-09-12T10:45:35;21.30;99.90
52127;DHT22;38120;53.176;6.614;2023-09-12T10:48:02;21.20;99.90
52127;DHT22;38120;53.176;6.614;2023-09-12T10:50:28;21.40;99.90
52127;DHT22;38120;53.176;6.614;2023-09-12T10:52:54;21.50;99.90
52127;DHT22;38120;53.176;6.614;2023-09-12T10:55:20;21.70;99.90
52127;DHT22;38120;53.176;6.614;2023-09-12T10:58:06;21.80;99.90
52127;DHT22;38120;53.176;6.614;2023-09-12T11:00:33;21.80;99.90
52127;DHT22;38120;53.176;6.614;2023-09-12T11:03:01;21.80;99.90
52127;DHT22;38120;53.176;6.614;2023-09-12T11:05:52;22.00;99.90
52127;DHT22;38120;53.176;6.614;2023-09-12T11:08:19;22.10;99.90
52127;DHT22;38120;53.176;6.614;2023-09-12T11:10:44;22.20;99.90
52127;DHT22;38120;53.176;6.614;2023-09-12T11:13:17;22.40;99.90
52127;DHT22;38120;53.176;6.614;2023-09-12T11:16:10;22.50;99.90
52127;DHT22;38120;53.176;6.614;2023-09-12T11:21:37;22.60;99.90
52127;DHT22;38120;53.176;6.614;2023-09-12T11:24:03;22.50;99.90
52127;DHT22;38120;53.176;6.614;2023-09-12T11:26:29;22.50;99.90
52127;DHT22;38120;53.176;6.614;2023-09-12T11:28:55;22.50;99.90
52127;DHT22;38120;53.176;6.614;2023-09-12T11:31:27;22.40;99.90
52127;DHT22;38120;53.176;6.614;2023-09-12T11:33:53;22.30;99.90
52127;DHT22;38120;53.176;6.614;2023-09-12T11:36:19;22.30;99.90
52127;DHT22;38120;53.176;6.614;2023-09-12T11:38:49;22.40;99.90
52127;DHT22;38120;53.176;6.614;2023-09-12T11:41:38;22.40;99.90
52127;DHT22;38120;53.176;6.614;2023-09-12T11:44:04;22.50;99.90
52127;DHT22;38120;53.176;6.614;2023-09-12T11:46:32;22.60;99.90
52127;DHT22;38120;53.176;6.614;2023-09-12T11:49:01;22.60;99.90
52127;DHT22;38120;53.176;6.614;2023-09-12T11:51:27;22.70;99.90
52127;DHT22;38120;53.176;6.614;2023-09-12T11:53:55;22.80;99.90
52127;DHT22;38120;53.176;6.614;2023-09-12T11:56:23;22.70;99.90
52127;DHT22;38120;53.176;6.614;2023-09-12T11:58:49;22.70;99.90
52127;DHT22;38120;53.176;6.614;2023-09-12T12:01:15;22.80;99.90
52127;DHT22;38120;53.176;6.614;2023-09-12T12:03:40;22.90;99.90
52127;DHT22;38120;53.176;6.614;2023-09-12T12:06:09;23.00;99.90
52127;DHT22;38120;53.176;6.614;2023-09-12T12:08:35;23.20;99.90
52127;DHT22;38120;53.176;6.614;2023-09-12T12:11:02;23.50;99.90
52127;DHT22;38120;53.176;6.614;2023-09-12T12:13:27;23.70;99.90
52127;DHT22;38120;53.176;6.614;2023-09-12T12:15:53;23.60;99.90
52127;DHT22;38120;53.176;6.614;2023-09-12T12:18:19;23.80;99.90
52127;DHT22;38120;53.176;6.614;2023-09-12T12:20:45;23.70;99.90
52127;DHT22;38120;53.176;6.614;2023-09-12T12:23:11;23.70;99.90
52127;DHT22;38120;53.176;6.614;2023-09-12T12:25:36;23.50;99.90
52127;DHT22;38120;53.176;6.614;2023-09-12T12:28:02;23.70;99.90
52127;DHT22;38120;53.176;6.614;2023-09-12T12:30:34;23.90;99.90
52127;DHT22;38120;53.176;6.614;2023-09-12T12:33:10;23.80;99.90
52127;DHT22;38120;53.176;6.614;2023-09-12T12:35:35;23.50;99.90
52127;DHT22;38120;53.176;6.614;2023-09-12T12:38:02;23.70;99.90
52127;DHT22;38120;53.176;6.614;2023-09-12T12:40:28;23.50;99.90
52127;DHT22;38120;53.176;6.614;2023-09-12T12:42:54;23.70;99.90
52127;DHT22;38120;53.176;6.614;2023-09-12T12:45:23;23.60;99.90
52127;DHT22;38120;53.176;6.614;2023-09-12T12:47:59;23.90;99.90
52127;DHT22;38120;53.176;6.614;2023-09-12T12:50:25;23.80;99.90
52127;DHT22;38120;53.176;6.614;2023-09-12T12:52:52;23.80;99.90
52127;DHT22;38120;53.176;6.614;2023-09-12T12:55:20;24.00;99.90
52127;DHT22;38120;53.176;6.614;2023-09-12T12:57:48;24.40;99.90
52127;DHT22;38120;53.176;6.614;2023-09-12T13:00:17;24.10;99.90
52127;DHT22;38120;53.176;6.614;2023-09-12T13:02:45;23.80;99.90
52127;DHT22;38120;53.176;6.614;2023-09-12T13:05:28;23.80;99.90
52127;DHT22;38120;53.176;6.614;2023-09-12T13:07:54;24.30;99.90
52127;DHT22;38120;53.176;6.614;2023-09-12T13:10:21;24.60;99.90
52127;DHT22;38120;53.176;6.614;2023-09-12T13:12:47;25.00;99.90
52127;DHT22;38120;53.176;6.614;2023-09-12T13:15:14;24.80;99.90
52127;DHT22;38120;53.176;6.614;2023-09-12T13:17:41;25.00;99.90
52127;DHT22;38120;53.176;6.614;2023-09-12T13:20:07;25.20;99.90
52127;DHT22;38120;53.176;6.614;2023-09-12T13:22:38;24.80;99.90
52127;DHT22;38120;53.176;6.614;2023-09-12T13:25:05;24.20;99.90
52127;DHT22;38120;53.176;6.614;2023-09-12T13:27:31;23.60;99.90
52127;DHT22;38120;53.176;6.614;2023-09-12T13:29:57;23.10;99.90
52127;DHT22;38120;53.176;6.614;2023-09-12T13:32:22;22.50;99.90
52127;DHT22;38120;53.176;6.614;2023-09-12T13:34:48;22.40;99.90
52127;DHT22;38120;53.176;6.614;2023-09-12T13:37:15;22.40;99.90
52127;DHT22;38120;53.176;6.614;2023-09-12T13:39:42;22.20;99.90
52127;DHT22;38120;53.176;6.614;2023-09-12T13:42:13;22.30;99.90
52127;DHT22;38120;53.176;6.614;2023-09-12T13:44:39;22.40;99.90
52127;DHT22;38120;53.176;6.614;2023-09-12T13:47:05;22.50;99.90
52127;DHT22;38120;53.176;6.614;2023-09-12T13:49:31;22.50;99.90
52127;DHT22;38120;53.176;6.614;2023-09-12T13:51:56;22.40;99.90
52127;DHT22;38120;53.176;6.614;2023-09-12T13:54:22;22.70;99.90
52127;DHT22;38120;53.176;6.614;2023-09-12T13:56:48;22.90;99.90
52127;DHT22;38120;53.176;6.614;2023-09-12T13:59:13;23.00;99.90
52127;DHT22;38120;53.176;6.614;2023-09-12T14:01:39;22.60;99.90
52127;DHT22;38120;53.176;6.614;2023-09-12T14:04:05;22.40;99.90
52127;DHT22;38120;53.176;6.614;2023-09-12T14:06:32;22.20;99.90
52127;DHT22;38120;53.176;6.614;2023-09-12T14:08:58;22.30;99.90
52127;DHT22;38120;53.176;6.614;2023-09-12T14:11:24;22.30;99.90
52127;DHT22;38120;53.176;6.614;2023-09-12T14:13:49;22.20;99.90
52127;DHT22;38120;53.176;6.614;2023-09-12T14:16:15;22.40;99.90
52127;DHT22;38120;53.176;6.614;2023-09-12T14:18:41;22.30;99.90
52127;DHT22;38120;53.176;6.614;2023-09-12T14:21:06;22.30;99.90
52127;DHT22;38120;53.176;6.614;2023-09-12T14:23:32;22.30;99.90
52127;DHT22;38120;53.176;6.614;2023-09-12T14:25:58;22.30;99.90
52127;DHT22;38120;53.176;6.614;2023-09-12T14:28:24;22.20;99.90
52127;DHT22;38120;53.176;6.614;2023-09-12T14:30:49;22.00;99.90
52127;DHT22;38120;53.176;6.614;2023-09-12T14:33:15;22.00;99.90
52127;DHT22;38120;53.176;6.614;2023-09-12T14:35:43;22.10;99.90
52127;DHT22;38120;53.176;6.614;2023-09-12T14:38:09;22.10;99.90
52127;DHT22;38120;53.176;6.614;2023-09-12T14:40:35;22.30;99.90
52127;DHT22;38120;53.176;6.614;2023-09-12T14:43:00;22.70;99.90
52127;DHT22;38120;53.176;6.614;2023-09-12T14:45:29;22.80;99.90
52127;DHT22;38120;53.176;6.614;2023-09-12T14:47:56;22.80;99.90
52127;DHT22;38120;53.176;6.614;2023-09-12T14:50:23;22.80;99.90
52127;DHT22;38120;53.176;6.614;2023-09-12T14:52:50;22.90;99.90
52127;DHT22;38120;53.176;6.614;2023-09-12T14:55:16;22.70;99.90
52127;DHT22;38120;53.176;6.614;2023-09-12T14:57:42;22.70;99.90
52127;DHT22;38120;53.176;6.614;2023-09-12T15:00:08;22.50;99.90
52127;DHT22;38120;53.176;6.614;2023-09-12T15:02:34;22.40;99.90
52127;DHT22;38120;53.176;6.614;2023-09-12T15:05:01;22.20;99.90
52127;DHT22;38120;53.176;6.614;2023-09-12T15:07:27;22.10;99.90
52127;DHT22;38120;53.176;6.614;2023-09-12T15:09:56;22.20;99.90
52127;DHT22;38120;53.176;6.614;2023-09-12T15:12:21;22.20;99.90
52127;DHT22;38120;53.176;6.614;2023-09-12T15:14:47;22.40;99.90
52127;DHT22;38120;53.176;6.614;2023-09-12T15:17:13;22.60;99.90
52127;DHT22;38120;53.176;6.614;2023-09-12T15:19:38;22.90;99.90
52127;DHT22;38120;53.176;6.614;2023-09-12T15:22:04;22.90;99.90
52127;DHT22;38120;53.176;6.614;2023-09-12T15:24:30;22.70;99.90
52127;DHT22;38120;53.176;6.614;2023-09-12T15:26:55;22.60;99.90
52127;DHT22;38120;53.176;6.614;2023-09-12T15:29:21;22.50;99.90
52127;DHT22;38120;53.176;6.614;2023-09-12T15:31:47;22.40;99.90
52127;DHT22;38120;53.176;6.614;2023-09-12T15:34:13;22.20;99.90
52127;DHT22;38120;53.176;6.614;2023-09-12T15:36:45;22.50;99.90